Time;durP1;ratioP1;P1;durP2;ratioP2;P2;SDS_P1;SDS_P2;PMS_P1;PMS_P2;Temp;Humidity;BMP_temperature;BMP_pressure;BME280_temperature;BME280_humidity;BME280_pressure;Samples;Min_cycle;Max_cycle;Signal;HPM_P1;HPM_P2
2023/08/21 00:02:18;;;;;;;4.97;3.45;;;21.80;99.90;;;;;;5075974;28;20036;-67
2023/08/21 00:04:44;;;;;;;4.15;3.42;;;21.80;99.90;;;;;;5072227;28;20094;-66
2023/08/21 00:07:11;;;;;;;6.07;3.42;;;21.80;99.90;;;;;;5069408;28;20031;-67
2023/08/21 00:09:37;;;;;;;4.78;3.60;;;21.70;99.90;;;;;;5068756;28;20499;-66
2023/08/21 00:12:03;;;;;;;4.78;3.60;;;21.70;99.90;;;;;;5073239;28;20065;-66
2023/08/21 00:14:29;;;;;;;6.82;3.60;;;21.70;99.90;;;;;;5088946;28;20036;-66
2023/08/21 00:16:55;;;;;;;7.53;3.63;;;21.70;99.90;;;;;;5072587;28;20044;-67
2023/08/21 00:19:21;;;;;;;6.72;3.47;;;21.60;99.90;;;;;;5074574;28;20031;-67
2023/08/21 00:21:47;;;;;;;4.88;3.47;;;21.60;99.90;;;;;;5078677;28;20115;-66
2023/08/21 00:24:13;;;;;;;5.80;3.88;;;21.60;99.90;;;;;;5078084;28;20060;-66
2023/08/21 00:26:39;;;;;;;4.63;3.60;;;21.60;99.90;;;;;;5067290;28;20060;-66
2023/08/21 00:29:04;;;;;;;4.72;4.13;;;21.60;99.90;;;;;;5066403;28;20067;-66
2023/08/21 00:31:31;;;;;;;5.55;3.70;;;21.60;99.90;;;;;;5065719;28;20090;-67
2023/08/21 00:33:57;;;;;;;5.25;4.57;;;21.60;99.90;;;;;;5073140;28;20036;-66
2023/08/21 00:36:23;;;;;;;5.53;4.65;;;21.70;99.90;;;;;;5080051;28;20024;-67
2023/08/21 00:38:49;;;;;;;7.72;4.55;;;21.60;99.90;;;;;;5076717;28;20515;-66
2023/08/21 00:41:15;;;;;;;5.28;4.57;;;21.70;99.90;;;;;;5077502;28;20032;-67
2023/08/21 00:43:40;;;;;;;7.20;4.93;;;21.70;99.90;;;;;;5066554;28;20500;-66
2023/08/21 00:46:07;;;;;;;6.00;4.53;;;21.80;99.90;;;;;;5057971;28;20020;-66
2023/08/21 00:48:33;;;;;;;8.90;4.82;;;21.80;99.90;;;;;;5070655;28;20074;-66
2023/08/21 00:51:01;;;;;;;6.38;3.95;;;21.80;99.90;;;;;;5076513;28;20103;-66
2023/08/21 00:53:26;;;;;;;6.68;4.55;;;21.80;99.90;;;;;;5078725;28;20111;-66
2023/08/21 00:55:52;;;;;;;5.65;4.78;;;21.70;99.90;;;;;;5072396;28;20052;-66
2023/08/21 00:58:19;;;;;;;7.97;4.85;;;21.70;99.90;;;;;;5069305;28;20479;-66
2023/08/21 01:00:50;;;;;;;5.35;4.70;;;21.70;99.90;;;;;;5073673;28;20025;-66
2023/08/21 01:03:16;;;;;;;6.13;4.57;;;21.70;99.90;;;;;;5072947;28;20028;-67
2023/08/21 01:05:42;;;;;;;8.50;4.82;;;21.70;99.90;;;;;;5073705;28;20033;-66
2023/08/21 01:08:47;;;;;;;9.77;5.30;;;21.70;99.90;;;;;;5071565;28;20066;-66
2023/08/21 01:11:42;;;;;;;8.95;5.10;;;21.70;99.90;;;;;;5075328;28;20040;-66
2023/08/21 01:14:17;;;;;;;9.52;5.60;;;21.70;99.90;;;;;;5079007;28;20036;-66
2023/08/21 01:16:46;;;;;;;7.25;5.05;;;21.70;99.90;;;;;;5081322;28;20024;-66
2023/08/21 01:19:24;;;;;;;7.22;5.10;;;21.70;99.90;;;;;;5091468;28;20078;-66
2023/08/21 01:21:50;;;;;;;6.40;5.40;;;21.80;99.90;;;;;;5088163;28;20036;-66
2023/08/21 01:24:19;;;;;;;8.23;5.93;;;21.80;99.90;;;;;;5078407;28;20020;-66
2023/08/21 01:26:45;;;;;;;8.73;5.90;;;21.80;99.90;;;;;;5064547;28;20061;-66
2023/08/21 01:29:11;;;;;;;9.85;5.90;;;21.80;99.90;;;;;;5061423;28;20071;-66
2023/08/21 01:31:39;;;;;;;6.85;5.40;;;21.90;99.90;;;;;;5075457;28;20051;-66
2023/08/21 01:34:08;;;;;;;8.02;5.72;;;21.90;99.90;;;;;;5076818;28;20049;-66
2023/08/21 01:36:35;;;;;;;6.38;5.68;;;21.80;99.90;;;;;;5071653;28;20056;-66
2023/08/21 01:39:01;;;;;;;9.32;5.57;;;21.90;99.90;;;;;;5070743;28;20017;-66
2023/08/21 01:41:27;;;;;;;7.40;5.55;;;21.90;99.90;;;;;;5092334;28;20033;-66
2023/08/21 01:43:53;;;;;;;7.25;4.88;;;22.00;99.90;;;;;;5074829;28;20696;-66
2023/08/21 01:46:19;;;;;;;6.88;5.68;;;22.10;99.90;;;;;;5072291;28;20029;-66
2023/08/21 01:48:45;;;;;;;6.10;5.40;;;22.00;99.90;;;;;;5073631;28;20104;-66
2023/08/21 01:51:11;;;;;;;8.07;5.78;;;22.00;99.90;;;;;;5071595;28;20871;-66
2023/08/21 01:53:37;;;;;;;7.80;5.30;;;22.00;99.90;;;;;;5071213;28;20508;-66
2023/08/21 01:56:03;;;;;;;7.03;5.35;;;21.90;99.90;;;;;;5067338;28;20028;-66
2023/08/21 01:58:28;;;;;;;7.53;6.20;;;21.90;99.90;;;;;;5067275;28;20139;-66
2023/08/21 02:00:54;;;;;;;8.20;6.18;;;21.90;99.90;;;;;;5067551;28;20692;-66
2023/08/21 02:03:20;;;;;;;6.13;5.50;;;21.80;99.90;;;;;;5071306;28;20021;-67
2023/08/21 02:05:46;;;;;;;9.20;6.20;;;21.80;99.90;;;;;;5063120;28;20508;-66
2023/08/21 02:08:14;;;;;;;7.07;6.30;;;21.80;99.90;;;;;;5081767;28;20830;-66
2023/08/21 02:10:52;;;;;;;8.30;6.30;;;21.80;99.90;;;;;;5070739;28;20040;-66
2023/08/21 02:13:19;;;;;;;10.70;6.35;;;21.80;99.90;;;;;;5069318;28;20725;-66
2023/08/21 02:15:44;;;;;;;7.93;6.35;;;21.80;99.90;;;;;;5070233;28;20648;-66
2023/08/21 02:18:11;;;;;;;7.63;6.13;;;21.80;99.90;;;;;;5069881;28;20024;-66
2023/08/21 02:20:38;;;;;;;7.90;6.15;;;21.80;99.90;;;;;;5075081;28;20024;-66
2023/08/21 02:23:04;;;;;;;7.50;6.28;;;21.80;99.90;;;;;;5074384;28;20055;-66
2023/08/21 02:25:31;;;;;;;6.82;6.05;;;21.90;99.90;;;;;;5081155;28;20551;-66
2023/08/21 02:27:57;;;;;;;8.43;5.97;;;21.90;99.90;;;;;;5073940;28;20032;-66
2023/08/21 02:30:25;;;;;;;8.48;6.35;;;21.90;99.90;;;;;;5076123;28;20103;-66
2023/08/21 02:32:54;;;;;;;7.40;6.40;;;21.80;99.90;;;;;;5070608;28;20025;-66
2023/08/21 02:35:23;;;;;;;10.00;6.72;;;21.80;99.90;;;;;;5062888;28;20063;-66
2023/08/21 02:37:49;;;;;;;7.38;6.03;;;21.80;99.90;;;;;;5074534;28;20033;-66
2023/08/21 02:40:15;;;;;;;8.88;6.80;;;21.80;99.90;;;;;;5075465;28;20036;-66
2023/08/21 02:42:41;;;;;;;7.53;6.72;;;21.80;99.90;;;;;;5072876;28;20032;-66
2023/08/21 02:45:10;;;;;;;7.40;6.45;;;21.90;99.90;;;;;;5061947;28;20039;-66
2023/08/21 02:47:40;;;;;;;7.28;6.50;;;21.90;99.90;;;;;;5072551;28;20395;-66
2023/08/21 02:50:07;;;;;;;8.45;6.82;;;21.90;99.90;;;;;;5066528;28;20041;-66
2023/08/21 02:52:33;;;;;;;10.43;7.53;;;21.90;99.90;;;;;;5065575;28;20035;-66
2023/08/21 02:54:59;;;;;;;8.55;7.25;;;21.90;99.90;;;;;;5073089;28;20024;-67
2023/08/21 02:57:26;;;;;;;7.90;7.00;;;21.90;99.90;;;;;;5072543;28;20637;-67
2023/08/21 02:59:53;;;;;;;8.10;6.80;;;21.80;99.90;;;;;;5075404;28;20041;-66
2023/08/21 03:02:19;;;;;;;7.32;6.47;;;21.90;99.90;;;;;;5073571;28;20567;-66
2023/08/21 03:04:45;;;;;;;8.15;7.03;;;21.90;99.90;;;;;;5072155;28;20032;-66
2023/08/21 03:07:12;;;;;;;7.57;6.70;;;21.90;99.90;;;;;;5074410;28;20106;-66
2023/08/21 03:09:39;;;;;;;10.13;7.38;;;22.00;99.90;;;;;;5072102;28;20032;-66
2023/08/21 03:12:05;;;;;;;9.35;6.85;;;21.90;99.90;;;;;;5071990;28;20028;-66
2023/08/21 03:14:31;;;;;;;10.85;7.35;;;22.00;99.90;;;;;;5075755;28;20679;-66
2023/08/21 03:16:56;;;;;;;9.30;7.13;;;22.00;99.90;;;;;;5071017;28;20034;-67
2023/08/21 03:19:22;;;;;;;7.38;6.28;;;22.00;99.90;;;;;;5075624;28;20044;-67
2023/08/21 03:21:48;;;;;;;9.55;7.47;;;22.00;99.90;;;;;;5074381;28;20439;-66
2023/08/21 03:24:14;;;;;;;9.07;7.45;;;22.00;99.90;;;;;;5070025;28;20036;-67
2023/08/21 03:26:40;;;;;;;8.05;6.85;;;22.00;99.90;;;;;;5072387;28;20031;-66
2023/08/21 03:29:06;;;;;;;9.65;6.88;;;22.10;99.90;;;;;;5069665;28;20032;-66
2023/08/21 03:31:32;;;;;;;8.18;6.97;;;22.10;99.90;;;;;;5065959;28;20063;-66
2023/08/21 03:33:58;;;;;;;9.02;6.38;;;22.10;99.90;;;;;;5074148;28;20020;-67
2023/08/21 03:36:30;;;;;;;9.20;6.75;;;22.10;99.90;;;;;;5076626;28;20027;-66
2023/08/21 03:39:01;;;;;;;8.45;7.20;;;22.10;99.90;;;;;;5070233;28;20028;-66
2023/08/21 03:41:28;;;;;;;8.05;6.65;;;22.10;99.90;;;;;;5052614;28;20039;-66
2023/08/21 03:43:54;;;;;;;7.80;6.45;;;22.10;99.90;;;;;;5068225;28;20042;-66
2023/08/21 03:46:19;;;;;;;8.70;6.70;;;22.10;99.90;;;;;;5072050;28;20450;-66
2023/08/21 03:48:45;;;;;;;8.80;6.97;;;22.10;99.90;;;;;;5068321;28;20020;-66
2023/08/21 03:51:11;;;;;;;12.25;6.72;;;22.20;99.90;;;;;;5070252;28;20479;-66
2023/08/21 03:53:37;;;;;;;9.13;6.80;;;22.30;99.90;;;;;;5073797;28;20043;-66
2023/08/21 03:56:03;;;;;;;8.32;6.50;;;22.30;99.90;;;;;;5072414;28;20021;-67
2023/08/21 03:58:29;;;;;;;8.25;6.85;;;22.30;99.90;;;;;;5072134;28;20746;-66
2023/08/21 04:00:54;;;;;;;8.82;6.65;;;22.30;99.90;;;;;;5063951;28;20147;-66
2023/08/21 04:03:21;;;;;;;7.82;6.22;;;22.30;99.90;;;;;;5065925;28;20024;-66
2023/08/21 04:05:47;;;;;;;7.22;5.95;;;22.30;99.90;;;;;;5071735;28;20573;-66
2023/08/21 04:08:13;;;;;;;9.70;5.85;;;22.30;99.90;;;;;;5075463;28;20065;-66
2023/08/21 04:10:39;;;;;;;8.45;6.72;;;22.30;99.90;;;;;;5069616;28;20039;-66
2023/08/21 04:13:05;;;;;;;7.00;6.15;;;22.30;99.90;;;;;;5073677;28;20790;-67
2023/08/21 04:15:34;;;;;;;7.15;5.85;;;22.30;99.90;;;;;;5075896;28;20012;-67
2023/08/21 04:18:00;;;;;;;7.10;6.15;;;22.30;99.90;;;;;;5080990;28;20082;-67
2023/08/21 04:20:26;;;;;;;8.93;5.93;;;22.20;99.90;;;;;;5065375;28;20498;-66
2023/08/21 04:22:52;;;;;;;7.80;5.78;;;22.20;99.90;;;;;;5063442;28;20036;-66
2023/08/21 04:25:18;;;;;;;8.75;6.40;;;22.20;99.90;;;;;;5060174;28;20835;-67
2023/08/21 04:27:44;;;;;;;7.15;5.93;;;22.10;99.90;;;;;;5068127;28;20484;-66
2023/08/21 04:30:11;;;;;;;7.75;6.18;;;22.10;99.90;;;;;;5073643;28;20077;-66
2023/08/21 04:32:37;;;;;;;7.05;5.35;;;22.00;99.90;;;;;;5074819;28;20555;-66
2023/08/21 04:35:03;;;;;;;7.45;6.50;;;22.00;99.90;;;;;;5061581;28;20199;-67
2023/08/21 04:37:28;;;;;;;7.38;5.82;;;22.00;99.90;;;;;;5069559;28;20034;-66
2023/08/21 04:39:55;;;;;;;8.20;6.18;;;21.90;99.90;;;;;;5054535;28;20663;-66
2023/08/21 04:42:22;;;;;;;7.68;6.35;;;21.90;99.90;;;;;;5067710;28;20046;-67
2023/08/21 04:44:48;;;;;;;6.88;6.03;;;21.90;99.90;;;;;;5056053;28;20060;-66
2023/08/21 04:47:25;;;;;;;8.50;6.22;;;21.90;99.90;;;;;;5065084;28;20029;-67
2023/08/21 04:49:55;;;;;;;7.22;5.93;;;21.90;99.90;;;;;;5067808;28;20032;-66
2023/08/21 04:52:22;;;;;;;8.35;6.75;;;22.00;99.90;;;;;;5071144;28;20024;-66
2023/08/21 04:54:49;;;;;;;7.82;6.15;;;22.00;99.90;;;;;;5056058;28;20025;-66
2023/08/21 04:57:15;;;;;;;8.75;6.03;;;22.00;99.90;;;;;;5066545;28;20046;-66
2023/08/21 04:59:42;;;;;;;10.95;6.45;;;22.00;99.90;;;;;;5070684;28;20020;-66
2023/08/21 05:02:08;;;;;;;7.22;6.13;;;22.00;99.90;;;;;;5071692;28;20025;-66
2023/08/21 05:04:36;;;;;;;9.68;6.18;;;22.10;99.90;;;;;;5075617;28;20024;-66
2023/08/21 05:07:04;;;;;;;8.52;6.05;;;22.20;99.90;;;;;;5054115;28;20028;-67
2023/08/21 05:09:30;;;;;;;7.03;5.22;;;22.20;99.90;;;;;;5070488;28;20444;-66
2023/08/21 05:11:57;;;;;;;5.68;5.03;;;22.20;99.90;;;;;;5071958;28;20447;-67
2023/08/21 05:14:24;;;;;;;8.20;6.15;;;22.30;99.90;;;;;;5065006;28;20132;-66
2023/08/21 05:16:50;;;;;;;6.07;5.43;;;22.40;99.90;;;;;;5066538;28;20476;-66
2023/08/21 05:19:17;;;;;;;7.95;6.25;;;22.40;99.90;;;;;;5064986;28;20533;-67
2023/08/21 05:21:44;;;;;;;7.03;5.95;;;22.50;99.90;;;;;;5072890;28;20050;-67
2023/08/21 05:24:10;;;;;;;7.07;5.93;;;22.50;99.90;;;;;;5071416;28;20113;-66
2023/08/21 05:26:40;;;;;;;7.35;5.57;;;22.60;99.90;;;;;;5062004;28;20029;-67
2023/08/21 05:29:06;;;;;;;7.07;5.88;;;22.60;99.90;;;;;;5071726;28;20035;-67
2023/08/21 05:31:32;;;;;;;7.32;5.90;;;22.70;99.90;;;;;;5056364;28;20752;-66
2023/08/21 05:33:58;;;;;;;6.95;6.07;;;22.80;99.90;;;;;;5088430;28;20729;-67
2023/08/21 05:36:24;;;;;;;7.03;5.93;;;22.90;99.90;;;;;;5093921;28;20122;-67
2023/08/21 05:38:51;;;;;;;8.20;5.70;;;22.90;99.90;;;;;;5068133;28;20027;-67
2023/08/21 05:41:18;;;;;;;6.13;5.43;;;23.00;99.90;;;;;;5069922;28;20029;-66
2023/08/21 05:43:47;;;;;;;6.95;5.82;;;23.10;99.90;;;;;;5074437;28;20032;-66
2023/08/21 05:46:13;;;;;;;7.47;6.75;;;23.10;99.90;;;;;;5076957;28;20024;-66
2023/08/21 05:48:39;;;;;;;7.43;5.88;;;23.20;99.90;;;;;;5071232;28;20035;-66
2023/08/21 05:51:05;;;;;;;7.07;6.32;;;23.20;99.90;;;;;;5072114;28;20024;-66
2023/08/21 05:53:31;;;;;;;7.72;6.60;;;23.30;99.90;;;;;;5075209;28;20034;-67
2023/08/21 05:55:58;;;;;;;8.93;6.38;;;23.30;99.90;;;;;;5068581;28;20028;-67
2023/08/21 05:58:29;;;;;;;6.88;6.18;;;23.30;99.90;;;;;;5070792;28;20511;-66
2023/08/21 06:00:54;;;;;;;7.80;6.40;;;23.40;99.90;;;;;;5095222;28;20032;-66
2023/08/21 06:03:21;;;;;;;8.43;6.28;;;23.50;99.90;;;;;;5066083;28;20060;-67
2023/08/21 06:06:00;;;;;;;9.90;6.10;;;23.50;99.90;;;;;;5074809;28;20031;-66
2023/08/21 06:08:26;;;;;;;8.35;6.57;;;23.60;99.90;;;;;;5080771;28;20027;-67
2023/08/21 06:10:52;;;;;;;7.60;5.88;;;23.70;99.90;;;;;;5069031;28;20048;-65
2023/08/21 06:13:19;;;;;;;7.43;6.07;;;23.70;99.90;;;;;;5079799;28;20027;-66
2023/08/21 06:15:47;;;;;;;9.13;6.20;;;23.70;99.90;;;;;;5072473;28;20032;-66
2023/08/21 06:18:15;;;;;;;7.43;6.35;;;23.80;99.90;;;;;;5061919;28;20055;-67
2023/08/21 06:20:44;;;;;;;8.70;6.43;;;23.80;99.90;;;;;;5069132;28;20020;-66
2023/08/21 06:23:10;;;;;;;9.73;5.88;;;23.90;99.90;;;;;;5075325;28;20063;-67
2023/08/21 06:25:37;;;;;;;7.20;4.93;;;23.90;99.90;;;;;;5075009;28;20032;-66
2023/08/21 06:28:03;;;;;;;6.80;5.45;;;24.00;99.90;;;;;;5068754;28;20435;-67
2023/08/21 06:30:29;;;;;;;5.43;4.93;;;24.10;99.90;;;;;;5069157;28;20036;-66
2023/08/21 06:32:56;;;;;;;5.78;4.90;;;24.10;99.90;;;;;;5084021;28;20051;-66
2023/08/21 06:35:22;;;;;;;8.80;4.90;;;24.20;99.90;;;;;;5072895;28;20721;-67
2023/08/21 06:37:47;;;;;;;7.18;4.97;;;24.30;99.90;;;;;;5073655;28;20024;-67
2023/08/21 06:40:13;;;;;;;6.50;4.90;;;24.40;99.90;;;;;;5073735;28;20090;-67
2023/08/21 06:42:39;;;;;;;5.63;4.32;;;24.40;99.90;;;;;;5068166;28;20467;-66
2023/08/21 06:45:05;;;;;;;7.00;5.10;;;24.50;99.90;;;;;;5068499;28;20519;-66
2023/08/21 06:47:32;;;;;;;8.13;4.65;;;24.60;99.90;;;;;;5078487;28;20023;-65
2023/08/21 06:50:00;;;;;;;8.18;4.80;;;24.70;99.90;;;;;;5072744;28;20037;-66
2023/08/21 06:52:26;;;;;;;5.68;4.70;;;24.90;99.90;;;;;;5075588;28;20366;-66
2023/08/21 06:54:52;;;;;;;6.07;4.40;;;24.90;99.90;;;;;;5075208;28;20028;-66
2023/08/21 06:57:17;;;;;;;6.22;4.00;;;25.00;99.90;;;;;;5074182;28;20024;-66
2023/08/21 06:59:43;;;;;;;8.98;3.53;;;25.00;99.90;;;;;;5069179;28;20040;-66
2023/08/21 07:02:09;;;;;;;6.15;3.78;;;24.90;99.90;;;;;;5070311;28;20040;-66
2023/08/21 07:04:35;;;;;;;4.93;3.80;;;24.80;99.90;;;;;;5077592;28;20384;-66
2023/08/21 07:07:01;;;;;;;6.03;3.85;;;24.80;99.90;;;;;;5068363;28;20029;-66
2023/08/21 07:09:27;;;;;;;4.63;3.10;;;24.90;99.90;;;;;;5070874;28;20801;-66
2023/08/21 07:11:52;;;;;;;4.50;3.58;;;25.00;99.90;;;;;;5070733;28;20041;-66
2023/08/21 07:14:19;;;;;;;5.82;3.65;;;25.00;99.90;;;;;;5071762;28;20442;-66
2023/08/21 07:16:45;;;;;;;8.65;3.65;;;25.00;99.90;;;;;;5074863;28;20123;-66
2023/08/21 07:19:11;;;;;;;5.88;3.35;;;25.10;99.90;;;;;;5065581;28;20067;-66
2023/08/21 07:21:38;;;;;;;5.30;3.22;;;25.10;99.90;;;;;;5081609;28;20032;-66
2023/08/21 07:24:04;;;;;;;6.45;3.53;;;25.10;99.90;;;;;;5070786;28;20029;-66
2023/08/21 07:26:30;;;;;;;4.38;3.05;;;25.20;99.90;;;;;;5071893;28;20190;-66
2023/08/21 07:28:56;;;;;;;4.80;2.95;;;25.20;99.90;;;;;;5070318;28;20119;-66
2023/08/21 07:31:22;;;;;;;5.50;3.10;;;25.30;99.90;;;;;;5069239;28;20035;-66
2023/08/21 07:33:48;;;;;;;5.03;3.15;;;25.50;99.90;;;;;;5073617;28;20035;-66
2023/08/21 07:36:17;;;;;;;4.55;2.60;;;25.60;99.90;;;;;;5065322;28;20028;-67
2023/08/21 07:38:46;;;;;;;4.22;2.97;;;25.70;99.90;;;;;;5054814;28;20468;-66
2023/08/21 07:41:12;;;;;;;4.53;2.85;;;25.70;99.90;;;;;;5058745;28;20016;-66
2023/08/21 07:43:41;;;;;;;4.88;2.60;;;25.80;99.90;;;;;;5068308;28;20039;-66
2023/08/21 07:46:09;;;;;;;2.97;1.95;;;25.90;99.80;;;;;;5064339;28;20119;-66
2023/08/21 07:48:35;;;;;;;3.95;2.70;;;25.90;99.00;;;;;;5067761;28;20054;-67
2023/08/21 07:51:02;;;;;;;4.95;2.35;;;25.90;99.70;;;;;;5073628;28;20107;-67
2023/08/21 07:53:28;;;;;;;4.13;2.72;;;25.90;99.70;;;;;;5072725;28;20075;-66
2023/08/21 07:55:54;;;;;;;5.78;2.35;;;25.80;99.90;;;;;;5063814;28;20131;-68
2023/08/21 07:58:19;;;;;;;3.55;2.33;;;25.80;99.70;;;;;;5065701;28;20025;-65
2023/08/21 08:00:45;;;;;;;3.65;2.42;;;25.80;99.60;;;;;;5074503;28;20420;-67
2023/08/21 08:03:14;;;;;;;5.55;2.72;;;25.90;99.90;;;;;;5079364;28;20442;-66
2023/08/21 08:05:40;;;;;;;4.07;2.05;;;25.80;99.70;;;;;;5065368;28;20150;-66
2023/08/21 08:08:06;;;;;;;3.28;2.50;;;25.90;99.60;;;;;;5072892;28;20459;-66
2023/08/21 08:10:31;;;;;;;5.10;3.00;;;25.80;99.90;;;;;;5057617;28;20040;-66
2023/08/21 08:12:57;;;;;;;7.00;2.55;;;25.80;99.90;;;;;;5067250;28;20028;-66
2023/08/21 08:15:23;;;;;;;7.45;3.83;;;25.90;97.90;;;;;;5066682;28;20432;-67
2023/08/21 08:17:53;;;;;;;2.58;1.90;;;25.80;98.60;;;;;;5054942;28;20446;-67
2023/08/21 08:20:19;;;;;;;3.95;3.42;;;25.80;98.10;;;;;;5052778;28;20036;-67
2023/08/21 08:22:45;;;;;;;7.07;2.60;;;25.90;98.60;;;;;;5053543;28;20040;-67
2023/08/21 08:25:10;;;;;;;7.57;4.22;;;25.80;97.30;;;;;;5058482;28;20062;-67
2023/08/21 08:27:37;;;;;;;7.15;3.42;;;25.80;97.40;;;;;;5055360;28;20103;-67
2023/08/21 08:30:04;;;;;;;5.20;1.75;;;25.80;97.50;;;;;;5064021;28;20043;-67
2023/08/21 08:32:29;;;;;;;4.55;2.25;;;25.80;95.40;;;;;;5073350;28;20035;-67
2023/08/21 08:34:56;;;;;;;3.88;1.88;;;25.90;95.10;;;;;;5080412;28;20100;-67
2023/08/21 08:37:21;;;;;;;3.53;2.08;;;25.90;95.00;;;;;;5058558;28;20114;-67
2023/08/21 08:39:47;;;;;;;4.30;2.70;;;26.00;96.20;;;;;;5052706;28;20802;-67
2023/08/21 08:42:15;;;;;;;7.43;2.80;;;26.10;95.50;;;;;;5066154;28;20457;-67
2023/08/21 08:44:42;;;;;;;2.83;1.48;;;26.10;95.00;;;;;;5065998;28;20111;-67
2023/08/21 08:47:11;;;;;;;3.17;1.10;;;26.00;91.90;;;;;;5071702;28;20177;-67
2023/08/21 08:49:38;;;;;;;2.50;1.05;;;26.10;93.10;;;;;;5073453;28;20669;-67
2023/08/21 08:52:04;;;;;;;2.45;1.58;;;26.00;94.80;;;;;;5059105;28;20036;-67
2023/08/21 08:54:31;;;;;;;4.22;1.45;;;26.00;94.10;;;;;;5074214;28;20024;-67
2023/08/21 08:56:58;;;;;;;8.48;1.92;;;26.10;92.80;;;;;;5074659;28;20147;-67
2023/08/21 08:59:24;;;;;;;2.22;0.95;;;26.30;93.00;;;;;;5073422;28;20032;-68
2023/08/21 09:01:50;;;;;;;3.15;0.85;;;26.50;91.40;;;;;;5067803;28;20039;-68
2023/08/21 09:04:16;;;;;;;1.63;0.60;;;26.60;92.10;;;;;;5068873;28;20467;-68
2023/08/21 09:06:41;;;;;;;2.22;0.80;;;26.70;87.90;;;;;;5074830;28;20077;-68
2023/08/21 09:09:10;;;;;;;3.05;0.85;;;26.90;89.00;;;;;;5071140;28;20036;-68
2023/08/21 09:11:42;;;;;;;3.20;1.20;;;27.00;88.70;;;;;;5073002;28;20711;-68
2023/08/21 09:14:07;;;;;;;2.92;0.90;;;27.10;88.10;;;;;;5067221;28;20025;-68
2023/08/21 09:16:33;;;;;;;2.28;0.88;;;27.10;86.20;;;;;;5067859;28;20098;-68
2023/08/21 09:18:59;;;;;;;7.47;0.98;;;27.20;86.50;;;;;;5072972;28;20029;-68
2023/08/21 09:21:27;;;;;;;1.70;0.88;;;27.40;85.40;;;;;;5070434;28;20115;-68
2023/08/21 09:24:02;;;;;;;2.60;0.90;;;27.50;84.90;;;;;;5077807;28;20111;-68
2023/08/21 09:26:32;;;;;;;1.50;0.70;;;27.60;86.90;;;;;;5077391;28;20101;-68
2023/08/21 09:29:04;;;;;;;2.58;1.08;;;27.70;86.20;;;;;;5058500;28;20448;-68
2023/08/21 09:31:32;;;;;;;2.40;0.77;;;27.80;84.40;;;;;;5072653;28;20036;-68
2023/08/21 09:34:00;;;;;;;2.08;0.68;;;27.90;83.50;;;;;;5076132;28;20124;-68
2023/08/21 09:36:27;;;;;;;1.95;0.73;;;28.10;84.40;;;;;;5075910;28;20655;-68
2023/08/21 09:38:53;;;;;;;3.10;0.90;;;28.20;81.00;;;;;;5073871;28;20036;-67
2023/08/21 09:41:23;;;;;;;1.95;0.75;;;28.20;83.10;;;;;;5061967;28;20029;-68
2023/08/21 09:43:49;;;;;;;1.50;0.70;;;28.20;82.40;;;;;;5061959;28;20039;-68
2023/08/21 09:46:24;;;;;;;2.22;0.88;;;28.20;81.40;;;;;;5072804;28;20429;-68
2023/08/21 09:48:52;;;;;;;2.42;1.05;;;28.30;79.20;;;;;;5070997;28;20035;-69
2023/08/21 09:51:18;;;;;;;2.42;0.70;;;28.30;78.40;;;;;;5071237;28;20598;-69
2023/08/21 09:53:44;;;;;;;2.13;0.98;;;28.30;77.00;;;;;;5066538;28;20111;-68
2023/08/21 09:56:11;;;;;;;1.50;0.70;;;28.20;78.80;;;;;;5069177;28;20040;-68
2023/08/21 09:58:37;;;;;;;5.50;1.23;;;28.10;79.20;;;;;;5069443;28;20039;-69
2023/08/21 10:01:11;;;;;;;5.25;1.35;;;28.00;79.20;;;;;;5068585;28;20028;-69
2023/08/21 10:03:40;;;;;;;1.33;0.82;;;28.00;78.50;;;;;;5076022;28;20036;-68
2023/08/21 10:06:08;;;;;;;2.10;0.90;;;27.90;79.50;;;;;;5059135;28;20528;-68
2023/08/21 10:08:38;;;;;;;2.85;1.15;;;28.00;80.40;;;;;;5074714;28;20087;-68
2023/08/21 10:11:06;;;;;;;4.40;1.10;;;28.10;77.50;;;;;;5067142;28;20060;-69
2023/08/21 10:13:33;;;;;;;4.10;0.82;;;28.20;77.80;;;;;;5058633;28;20416;-68
2023/08/21 10:16:00;;;;;;;1.10;0.88;;;28.30;78.80;;;;;;5069173;28;20032;-68
2023/08/21 10:18:37;;;;;;;2.05;0.70;;;28.40;76.70;;;;;;5072930;28;20103;-69
2023/08/21 10:21:13;;;;;;;2.72;1.00;;;28.40;77.60;;;;;;5071684;28;20029;-69
2023/08/21 10:23:40;;;;;;;1.48;0.90;;;28.50;79.80;;;;;;5058127;28;20033;-68
2023/08/21 10:26:08;;;;;;;1.88;0.90;;;28.60;77.40;;;;;;5062401;28;20024;-69
2023/08/21 10:28:53;;;;;;;1.13;0.85;;;28.70;78.00;;;;;;5059198;28;20033;-69
2023/08/21 10:31:29;;;;;;;2.55;0.60;;;28.70;78.80;;;;;;5070388;28;20036;-68
2023/08/21 10:33:56;;;;;;;0.90;0.68;;;28.70;77.30;;;;;;5066081;28;20389;-69
2023/08/21 10:36:39;;;;;;;2.80;0.90;;;28.80;77.50;;;;;;5060221;28;20437;-68
2023/08/21 10:39:31;;;;;;;3.70;0.90;;;28.80;74.50;;;;;;5066280;28;20039;-68
2023/08/21 10:41:58;;;;;;;3.17;0.70;;;28.80;72.40;;;;;;5062811;28;20036;-70
2023/08/21 10:45:03;;;;;;;2.67;0.73;;;28.70;76.10;;;;;;5054537;28;20351;-69
2023/08/21 10:47:34;;;;;;;3.77;0.90;;;28.60;75.70;;;;;;5073744;28;20500;-69
2023/08/21 10:50:08;;;;;;;2.15;0.95;;;28.60;76.40;;;;;;5066675;28;20289;-69
2023/08/21 10:52:42;;;;;;;5.38;1.25;;;28.60;76.00;;;;;;5069580;28;20027;-68
2023/08/21 10:55:09;;;;;;;5.78;0.90;;;28.70;73.80;;;;;;5070379;28;20116;-69
2023/08/21 10:57:35;;;;;;;3.00;0.88;;;28.80;74.00;;;;;;5068610;28;20029;-69
2023/08/21 11:00:09;;;;;;;1.85;0.90;;;28.90;74.70;;;;;;5069367;28;20476;-69
2023/08/21 11:02:37;;;;;;;3.95;0.88;;;29.00;74.00;;;;;;5081581;28;20047;-69
2023/08/21 11:05:04;;;;;;;3.05;0.80;;;29.30;71.60;;;;;;5058885;28;20033;-69
2023/08/21 11:07:35;;;;;;;1.55;0.65;;;29.50;71.30;;;;;;5080323;28;20803;-69
2023/08/21 11:10:02;;;;;;;3.83;1.20;;;29.50;71.80;;;;;;5075364;28;20539;-68
2023/08/21 11:12:28;;;;;;;3.00;0.90;;;29.50;74.40;;;;;;5072009;28;20093;-67
2023/08/21 11:14:54;;;;;;;4.13;1.00;;;29.40;71.90;;;;;;5067632;28;20028;-68
2023/08/21 11:17:19;;;;;;;3.13;0.90;;;29.40;71.90;;;;;;5100915;28;20506;-68
2023/08/21 11:19:48;;;;;;;2.80;1.05;;;29.30;72.70;;;;;;5075505;28;20024;-68
2023/08/21 11:22:13;;;;;;;5.25;1.20;;;29.20;73.20;;;;;;5070215;28;20032;-68
2023/08/21 11:24:47;;;;;;;3.83;0.75;;;29.20;73.60;;;;;;5058609;28;20503;-68
2023/08/21 11:27:16;;;;;;;3.45;0.90;;;29.30;71.40;;;;;;5076686;28;20039;-68
2023/08/21 11:29:51;;;;;;;2.67;1.17;;;29.30;71.30;;;;;;5071055;28;20784;-68
2023/08/21 11:32:21;;;;;;;3.22;1.00;;;29.30;72.70;;;;;;5072054;28;20448;-68
2023/08/21 11:34:55;;;;;;;4.07;0.95;;;29.40;73.30;;;;;;5074800;28;20476;-69
2023/08/21 11:37:26;;;;;;;1.10;0.52;;;29.40;69.00;;;;;;5068954;28;20032;-68
2023/08/21 11:39:54;;;;;;;11.65;2.05;;;29.40;69.40;;;;;;5057637;28;20420;-69
2023/08/21 11:42:21;;;;;;;5.35;1.23;;;29.40;70.30;;;;;;5056628;28;20033;-68
2023/08/21 11:44:50;;;;;;;3.03;1.05;;;29.40;70.70;;;;;;5073133;28;20173;-69
2023/08/21 11:47:17;;;;;;;278.08;27.77;;;29.40;71.70;;;;;;5065033;28;20054;-68
2023/08/21 11:49:47;;;;;;;49.80;6.22;;;29.40;73.60;;;;;;5066573;28;20056;-68
2023/08/21 11:52:13;;;;;;;1.65;0.73;;;29.40;74.60;;;;;;5053160;28;20105;-68
2023/08/21 11:54:40;;;;;;;2.90;0.88;;;29.40;71.40;;;;;;5069542;28;20028;-69
2023/08/21 11:57:13;;;;;;;2.53;0.90;;;29.40;70.80;;;;;;5065312;28;20033;-69
2023/08/21 11:59:39;;;;;;;4.40;0.93;;;29.30;72.50;;;;;;5073216;28;20731;-68
2023/08/21 12:02:25;;;;;;;0.90;0.63;;;29.20;71.30;;;;;;5069912;28;20503;-69
2023/08/21 12:05:06;;;;;;;;;;;29.00;70.20;;;;;;5072598;28;20033;-69
2023/08/21 12:07:33;;;;;;;4.13;0.93;;;28.90;71.00;;;;;;5069252;28;19912;-68
2023/08/21 12:09:59;;;;;;;2.33;1.00;;;28.90;73.50;;;;;;5062228;28;20712;-68
2023/08/21 12:12:24;;;;;;;4.13;1.13;;;28.80;71.30;;;;;;5071084;28;20036;-68
2023/08/21 12:14:51;;;;;;;1.73;0.80;;;28.70;73.90;;;;;;5070506;28;20071;-68
2023/08/21 12:17:17;;;;;;;3.53;1.05;;;28.70;74.40;;;;;;5072775;28;20033;-69
2023/08/21 12:19:43;;;;;;;4.57;0.98;;;28.60;73.40;;;;;;5070886;28;20020;-68
2023/08/21 12:22:09;;;;;;;6.20;1.33;;;28.60;74.70;;;;;;5078715;28;20575;-68
2023/08/21 12:24:36;;;;;;;2.17;0.85;;;28.60;73.10;;;;;;5073134;28;20066;-68
2023/08/21 12:27:03;;;;;;;2.63;0.77;;;28.60;73.90;;;;;;5075531;28;20044;-68
2023/08/21 12:29:29;;;;;;;3.10;1.10;;;28.50;71.80;;;;;;5068118;28;20036;-68
2023/08/21 12:31:55;;;;;;;9.25;0.90;;;28.50;73.30;;;;;;5076369;28;20040;-69
2023/08/21 12:34:21;;;;;;;3.20;1.50;;;28.60;71.90;;;;;;5068117;28;20120;-68
2023/08/21 12:36:47;;;;;;;3.53;1.15;;;28.60;74.20;;;;;;5069631;28;20505;-68
2023/08/21 12:39:13;;;;;;;1.83;0.85;;;28.60;73.60;;;;;;5056018;28;20063;-68
2023/08/21 12:41:39;;;;;;;2.50;0.90;;;28.70;73.50;;;;;;5060743;28;20037;-68
2023/08/21 12:44:08;;;;;;;3.70;0.75;;;28.60;72.40;;;;;;5073992;28;20028;-68
2023/08/21 12:46:35;;;;;;;3.53;0.93;;;28.60;72.70;;;;;;5076271;28;20035;-68
2023/08/21 12:49:02;;;;;;;6.78;1.65;;;28.60;71.10;;;;;;5072482;28;20592;-68